.
WxDataArchive / Data Records for 2012-12-14
2012-12-13 December 2012 2012-12-15

Data Records for Friday, 14 December 2012

Time	Temp	Chill	HIndex	Humid	Dewpt	 Wind 	HiWind	WindDir	Rain 	Barom 
-----	----	-----	------	-----	-----	------	------	-------	-----	----- 
00:00	34.1	34.1	34.1	68	24.7	0	1	225	0.00	30.224 
00:05	34.0	34.0	34.0	68	24.6	0	0	---	0.00	30.224 
00:10	33.7	33.7	33.7	68	24.3	0	0	---	0.00	30.224 
00:15	33.4	33.4	33.4	69	24.3	0	0	---	0.00	30.223 
00:20	33.2	33.2	33.2	69	24.2	0	0	---	0.00	30.223 
00:25	32.9	32.9	32.9	69	23.9	0	0	---	0.00	30.223 
00:30	32.7	32.7	32.7	70	24.0	0	0	---	0.00	30.228 
00:35	32.5	32.5	32.5	71	24.2	0	0	---	0.00	30.228 
00:40	32.2	32.2	32.2	71	23.9	0	0	---	0.00	30.228 
00:45	32.2	32.2	32.2	71	23.9	0	0	---	0.00	30.228 
00:50	32.1	32.1	32.1	72	24.1	0	0	---	0.00	30.228 
00:55	31.8	31.8	31.8	72	23.8	0	0	---	0.00	30.228 
01:00	31.5	31.5	31.5	73	23.9	0	0	---	0.00	30.225 
01:05	31.0	31.0	31.0	73	23.4	0	0	---	0.00	30.225 
01:10	30.7	30.7	30.7	73	23.1	0	0	---	0.00	30.225 
01:15	30.4	30.4	30.4	74	23.1	0	0	---	0.00	30.222 
01:20	30.0	30.0	30.0	74	22.7	0	0	---	0.00	30.222 
01:25	29.8	29.8	29.8	75	22.9	0	0	---	0.00	30.222 
01:30	29.5	29.5	29.5	76	22.9	0	0	---	0.00	30.219 
01:35	29.5	29.5	29.5	76	22.9	0	0	---	0.00	30.219 
01:40	29.4	29.4	29.4	77	23.1	0	0	---	0.00	30.219 
01:45	29.3	29.3	29.3	77	23.0	0	0	---	0.00	30.217 
01:50	29.3	29.3	29.3	78	23.3	0	0	---	0.00	30.217 
01:55	29.3	29.3	29.3	78	23.3	0	0	---	0.00	30.217 
02:00	29.3	29.3	29.3	78	23.3	0	0	---	0.00	30.220 
02:05	29.1	29.1	29.1	78	23.1	0	0	---	0.00	30.220 
02:10	29.0	29.0	29.0	78	23.0	0	0	---	0.00	30.220 
02:15	29.0	29.0	29.0	79	23.3	0	0	---	0.00	30.221 
02:20	29.0	29.0	29.0	79	23.3	0	0	---	0.00	30.221 
02:25	29.1	29.1	29.1	80	23.7	0	1	225	0.00	30.221 
02:30	29.3	29.3	29.3	80	23.9	0	0	---	0.00	30.226 
02:35	29.4	29.4	29.4	79	23.7	0	1	225	0.00	30.226 
02:40	29.5	29.5	29.5	79	23.8	0	0	---	0.00	30.226 
02:45	29.7	29.7	29.7	79	24.0	0	0	---	0.00	30.228 
02:50	29.8	29.8	29.8	78	23.8	0	0	---	0.00	30.228 
02:55	30.1	30.1	30.1	78	24.1	0	1	225	0.00	30.228 
03:00	30.3	30.3	30.3	77	24.0	0	1	225	0.00	30.228 
03:05	30.4	30.4	30.4	77	24.1	0	1	225	0.00	30.228 
03:10	30.7	30.7	30.7	77	24.4	0	1	225	0.00	30.228 
03:15	30.9	30.9	30.9	76	24.2	0	1	225	0.00	30.228 
03:20	31.2	31.2	31.2	76	24.5	0	2	225	0.00	30.228 
03:25	31.5	31.5	31.5	75	24.5	0	1	225	0.00	30.228 
03:30	31.6	31.6	31.6	74	24.3	0	1	225	0.00	30.228 
03:35	31.6	31.6	31.6	74	24.3	0	1	225	0.00	30.228 
03:40	31.8	31.8	31.8	74	24.5	0	1	225	0.00	30.228 
03:45	31.9	31.9	31.9	73	24.2	0	1	225	0.00	30.231 
03:50	32.2	32.2	32.2	73	24.5	0	2	225	0.00	30.231 
03:55	32.2	32.2	32.2	73	24.5	0	2	225	0.00	30.231 
04:00	32.5	32.5	32.5	72	24.5	0	2	225	0.00	30.226 
04:05	32.7	32.7	32.7	71	24.4	0	3	225	0.00	30.226 
04:10	32.8	32.8	32.8	71	24.4	0	2	225	0.00	30.226 
04:15	32.8	32.8	32.8	71	24.4	0	1	225	0.00	30.229 
04:20	32.8	32.8	32.8	70	24.1	0	2	225	0.00	30.229 
04:25	32.9	32.9	32.9	70	24.2	0	1	225	0.00	30.229 
04:30	32.9	32.9	32.9	70	24.2	0	2	225	0.00	30.233 
04:35	32.9	32.9	32.9	70	24.2	0	2	225	0.00	30.233 
04:40	32.9	32.9	32.9	70	24.2	0	3	225	0.00	30.233 
04:45	32.9	32.9	32.9	70	24.2	0	2	225	0.00	30.230 
04:50	32.9	32.9	32.9	70	24.2	0	2	225	0.00	30.230 
04:55	32.9	32.9	32.9	70	24.2	0	2	225	0.00	30.230 
05:00	32.9	32.9	32.9	70	24.2	0	3	225	0.00	30.226 
05:05	32.9	32.9	32.9	70	24.2	0	2	225	0.00	30.226 
05:10	32.9	32.9	32.9	70	24.2	0	1	225	0.00	30.226 
05:15	32.8	32.8	32.8	70	24.1	0	1	225	0.00	30.231 
05:20	32.8	32.8	32.8	70	24.1	0	2	225	0.00	30.231 
05:25	32.7	32.7	32.7	70	24.0	0	1	225	0.00	30.231 
05:30	32.5	32.5	32.5	70	23.8	0	1	225	0.00	30.233 
05:35	32.2	32.2	32.2	71	23.9	0	0	---	0.00	30.233 
05:40	32.1	32.1	32.1	71	23.8	0	1	225	0.00	30.233 
05:45	31.9	31.9	31.9	71	23.6	0	1	225	0.00	30.231 
05:50	31.8	31.8	31.8	71	23.5	0	0	---	0.00	30.231 
05:55	31.6	31.6	31.6	72	23.6	0	1	225	0.00	30.231 
06:00	31.5	31.5	31.5	72	23.5	0	1	225	0.00	30.232 
06:05	31.5	31.5	31.5	73	23.9	0	1	225	0.00	30.232 
06:10	31.3	31.3	31.3	73	23.7	0	1	225	0.00	30.232 
06:15	31.2	31.2	31.2	73	23.6	0	0	---	0.00	30.237 
06:20	31.0	31.0	31.0	73	23.4	0	1	225	0.00	30.237 
06:25	31.0	31.0	31.0	73	23.4	0	1	225	0.00	30.237 
06:30	31.0	31.0	31.0	74	23.7	0	1	225	0.00	30.232 
06:35	30.9	30.9	30.9	74	23.6	0	0	---	0.00	30.232 
06:40	30.7	30.7	30.7	74	23.4	0	1	225	0.00	30.232 
06:45	30.7	30.7	30.7	74	23.4	0	0	---	0.00	30.232 
06:50	30.6	30.6	30.6	74	23.3	0	1	225	0.00	30.232 
06:55	30.6	30.6	30.6	74	23.3	0	0	---	0.00	30.232 
07:00	30.3	30.3	30.3	75	23.3	0	1	225	0.00	30.233 
07:05	30.1	30.1	30.1	75	23.2	0	0	---	0.00	30.233 
07:10	30.0	30.0	30.0	75	23.1	0	0	---	0.00	30.233 
07:15	29.8	29.8	29.8	76	23.2	0	1	225	0.00	30.235 
07:20	29.7	29.7	29.7	76	23.1	0	1	225	0.00	30.235 
07:25	29.8	29.8	29.8	76	23.2	0	1	225	0.00	30.235 
07:30	29.8	29.8	29.8	77	23.5	0	1	225	0.00	30.239 
07:35	29.8	29.8	29.8	77	23.5	0	1	225	0.00	30.239 
07:40	29.8	29.8	29.8	77	23.5	0	0	---	0.00	30.239 
07:45	29.7	29.7	29.7	77	23.4	0	0	---	0.00	30.241 
07:50	29.5	29.5	29.5	77	23.2	0	0	---	0.00	30.241 
07:55	29.4	29.4	29.4	77	23.1	0	0	---	0.00	30.241 
08:00	29.4	29.4	29.4	77	23.1	0	0	---	0.00	30.243 
08:05	29.3	29.3	29.3	77	23.0	0	0	---	0.00	30.243 
08:10	29.1	29.1	29.1	77	22.8	0	0	---	0.00	30.243 
08:15	29.0	29.0	29.0	77	22.7	0	0	---	0.00	30.240 
08:20	28.8	28.8	28.8	78	22.8	0	0	---	0.00	30.240 
08:25	28.7	28.7	28.7	78	22.7	0	0	---	0.00	30.240 
08:30	28.5	28.5	28.5	78	22.5	0	0	---	0.00	30.244 
08:35	28.5	28.5	28.5	78	22.5	0	0	---	0.00	30.244 
08:40	28.5	28.5	28.5	79	22.8	0	0	---	0.00	30.244 
08:45	28.7	28.7	28.7	80	23.3	0	0	---	0.00	30.243 
08:50	29.1	29.1	29.1	80	23.7	0	1	225	0.00	30.243 
08:55	29.5	29.5	29.5	80	24.1	0	1	225	0.00	30.243 
09:00	30.3	30.3	30.3	80	24.9	0	1	225	0.00	30.244 
09:05	30.9	30.9	30.9	79	25.2	0	3	225	0.00	30.244 
09:10	31.8	31.8	31.8	77	25.4	0	3	225	0.00	30.244 
09:15	32.5	32.5	32.5	76	25.8	0	2	225	0.00	30.244 
09:20	33.1	33.1	33.1	74	25.7	0	2	225	0.00	30.244 
09:25	33.7	33.7	33.7	73	26.0	0	2	225	0.00	30.244 
09:30	34.1	34.1	34.1	71	25.7	0	2	225	0.00	30.250 
09:35	34.6	34.6	34.6	70	25.8	0	2	225	0.00	30.250 
09:40	34.9	34.9	34.9	69	25.8	0	3	225	0.00	30.250 
09:45	35.3	35.3	35.3	68	25.8	0	2	225	0.00	30.248 
09:50	35.8	35.8	35.8	66	25.6	1	4	225	0.00	30.248 
09:55	36.2	36.2	36.2	66	26.0	1	4	225	0.00	30.248 
10:00	36.6	36.6	36.6	65	26.0	1	2	225	0.00	30.252 
10:05	37.0	37.0	37.0	64	26.0	1	3	225	0.00	30.252 
10:10	37.3	37.3	37.3	63	25.9	0	2	225	0.00	30.252 
10:15	37.8	37.8	37.8	62	26.0	1	4	225	0.00	30.255 
10:20	38.0	38.0	38.0	61	25.8	1	3	225	0.00	30.255 
10:25	38.3	38.3	38.3	60	25.6	2	5	248	0.00	30.255 
10:30	38.6	38.6	38.6	60	25.9	1	3	248	0.00	30.266 
10:35	38.9	38.9	38.9	60	26.2	1	5	248	0.00	30.266 
10:40	39.2	39.2	39.2	59	26.1	1	3	248	0.00	30.266 
10:45	39.6	39.6	39.6	60	26.9	0	2	248	0.00	30.269 
10:50	39.9	39.9	39.9	59	26.7	0	3	248	0.00	30.269 
10:55	40.2	40.2	40.2	58	26.6	0	3	248	0.00	30.269 
11:00	40.5	40.5	40.5	58	26.9	0	3	248	0.00	30.264 
11:05	40.9	40.9	40.9	57	26.9	0	2	248	0.00	30.264 
11:10	41.1	41.1	41.1	56	26.6	1	3	248	0.00	30.264 
11:15	41.2	41.2	41.2	56	26.7	0	3	248	0.00	30.267 
11:20	41.3	41.3	41.3	55	26.4	1	3	248	0.00	30.267 
11:25	41.5	41.5	41.5	56	27.0	1	3	248	0.00	30.267 
11:30	41.8	41.8	41.8	56	27.3	0	3	248	0.00	30.260 
11:35	41.9	41.9	41.9	57	27.8	0	2	248	0.00	30.260 
11:40	42.2	42.2	42.2	55	27.2	0	3	248	0.00	30.260 
11:45	42.5	42.5	42.5	55	27.5	0	1	248	0.00	30.250 
11:50	42.8	42.8	42.8	55	27.8	0	2	248	0.00	30.250 
11:55	42.8	42.8	42.8	53	26.9	1	3	248	0.00	30.250 
12:00	43.1	43.1	43.1	53	27.1	0	2	248	0.00	30.249 
12:05	43.2	43.2	43.2	54	27.7	0	2	248	0.00	30.249 
12:10	43.3	43.3	43.3	53	27.3	0	2	248	0.00	30.249 
12:15	43.6	43.6	43.6	52	27.1	1	3	248	0.00	30.241 
12:20	43.9	43.9	43.9	53	27.9	0	1	248	0.00	30.241 
12:25	44.2	44.2	44.2	53	28.2	0	2	248	0.00	30.241 
12:30	44.3	44.3	44.3	51	27.3	0	2	248	0.00	30.232 
12:35	44.3	44.3	44.3	50	26.8	0	2	248	0.00	30.232 
12:40	44.5	44.5	44.5	52	28.0	1	2	248	0.00	30.232 
12:45	44.6	44.6	44.6	52	28.1	0	2	248	0.00	30.219 
12:50	44.9	44.9	44.9	50	27.4	1	6	248	0.00	30.219 
12:55	45.1	45.1	45.1	51	28.1	0	2	90	0.00	30.219 
13:00	45.2	45.2	45.2	50	27.7	0	2	90	0.00	30.214 
13:05	45.5	45.5	45.5	50	28.0	1	4	90	0.00	30.214 
13:10	45.7	45.7	45.7	50	28.1	0	3	90	0.00	30.214 
13:15	46.0	46.0	46.0	51	28.9	0	2	90	0.00	30.208 
13:20	46.0	46.0	46.0	50	28.4	0	2	90	0.00	30.208 
13:25	46.1	46.1	46.1	50	28.5	1	3	90	0.00	30.208 
13:30	46.1	46.1	46.1	50	28.5	1	3	90	0.00	30.199 
13:35	46.2	46.2	46.2	50	28.6	0	2	90	0.00	30.199 
13:40	46.4	46.4	46.4	49	28.3	1	3	90	0.00	30.199 
13:45	46.4	46.4	46.4	49	28.3	1	3	90	0.00	30.188 
13:50	46.7	46.7	46.7	49	28.6	0	2	90	0.00	30.188 
13:55	46.8	46.8	46.8	50	29.2	0	1	90	0.00	30.188 
14:00	47.0	47.0	47.0	49	28.8	0	1	90	0.00	30.182 
14:05	47.1	47.1	47.1	49	28.9	0	1	90	0.00	30.182 
14:10	47.1	47.1	47.1	47	27.9	1	3	90	0.00	30.182 
14:15	47.3	47.3	47.3	48	28.6	1	3	90	0.00	30.183 
14:20	47.3	47.3	47.3	48	28.6	0	2	90	0.00	30.183 
14:25	47.3	47.3	47.3	47	28.1	1	3	90	0.00	30.183 
14:30	47.4	47.4	47.4	48	28.7	0	3	90	0.00	30.181 
14:35	47.4	47.4	47.4	48	28.7	0	1	90	0.00	30.181 
14:40	47.6	47.6	47.6	47	28.4	0	3	90	0.00	30.181 
14:45	47.7	47.7	47.7	48	29.0	0	2	90	0.00	30.179 
14:50	47.9	47.9	47.9	48	29.2	0	2	90	0.00	30.179 
14:55	47.9	47.9	47.9	47	28.7	0	2	90	0.00	30.179 
15:00	47.9	47.9	47.9	48	29.2	0	2	90	0.00	30.178 
15:05	47.9	47.9	47.9	48	29.2	1	3	90	0.00	30.178 
15:10	47.9	47.9	47.9	48	29.2	1	3	90	0.00	30.178 
15:15	47.9	47.9	47.9	48	29.2	0	2	90	0.00	30.181 
15:20	47.9	47.9	47.9	49	29.7	0	1	90	0.00	30.181 
15:25	47.7	47.7	47.7	48	29.0	0	1	90	0.00	30.181 
15:30	47.6	47.6	47.6	49	29.4	1	3	90	0.00	30.185 
15:35	47.1	47.1	47.1	50	29.4	0	2	90	0.00	30.185 
15:40	46.8	46.8	46.8	50	29.2	0	2	90	0.00	30.185 
15:45	46.7	46.7	46.7	51	29.5	0	1	90	0.00	30.167 
15:50	46.5	46.5	46.5	50	28.9	0	1	90	0.00	30.167 
15:55	46.5	46.5	46.5	51	29.4	0	2	90	0.00	30.167 
16:00	46.4	46.4	46.4	53	30.2	0	0	---	0.00	30.175 
16:05	46.2	46.2	46.2	52	29.6	0	1	90	0.00	30.175 
16:10	46.1	46.1	46.1	53	29.9	0	1	90	0.00	30.175 
16:15	46.1	46.1	46.1	54	30.4	0	1	90	0.00	30.171 
16:20	46.0	46.0	46.0	54	30.3	0	1	90	0.00	30.171 
16:25	45.7	45.7	45.7	54	30.0	0	0	---	0.00	30.171 
16:30	45.4	45.4	45.4	54	29.7	0	0	---	0.00	30.170 
16:35	45.2	45.2	45.2	54	29.6	0	0	---	0.00	30.170 
16:40	44.9	44.9	44.9	55	29.7	0	0	---	0.00	30.170 
16:45	44.6	44.6	44.6	56	29.9	0	1	90	0.00	30.170 
16:50	44.3	44.3	44.3	56	29.6	0	1	90	0.00	30.170 
16:55	44.1	44.1	44.1	57	29.9	0	0	---	0.00	30.170 
17:00	43.6	43.6	43.6	58	29.8	0	0	---	0.00	30.174 
17:05	43.2	43.2	43.2	58	29.4	0	0	---	0.00	30.174 
17:10	42.8	42.8	42.8	59	29.5	0	0	---	0.00	30.174 
17:15	42.2	42.2	42.2	61	29.7	0	0	---	0.00	30.175 
17:20	41.5	41.5	41.5	62	29.5	0	0	---	0.00	30.175 
17:25	40.9	40.9	40.9	63	29.3	0	0	---	0.00	30.175 
17:30	40.5	40.5	40.5	64	29.3	0	0	---	0.00	30.176 
17:35	39.9	39.9	39.9	64	28.7	0	0	---	0.00	30.176 
17:40	39.5	39.5	39.5	65	28.7	0	0	---	0.00	30.176 
17:45	39.2	39.2	39.2	66	28.8	0	0	---	0.00	30.180 
17:50	38.8	38.8	38.8	68	29.2	0	0	---	0.00	30.180 
17:55	38.3	38.3	38.3	68	28.7	0	0	---	0.00	30.180 
18:00	37.9	37.9	37.9	69	28.7	0	0	---	0.00	30.178 
18:05	37.6	37.6	37.6	71	29.1	0	0	---	0.00	30.178 
18:10	37.3	37.3	37.3	72	29.1	0	0	---	0.00	30.178 
18:15	37.0	37.0	37.0	71	28.5	0	0	---	0.00	30.194 
18:20	36.8	36.8	36.8	72	28.6	0	0	---	0.00	30.194 
18:25	36.5	36.5	36.5	73	28.7	0	0	---	0.00	30.194 
18:30	36.2	36.2	36.2	73	28.4	0	0	---	0.00	30.193 
18:35	35.9	35.9	35.9	74	28.4	0	0	---	0.00	30.193 
18:40	35.8	35.8	35.8	75	28.7	0	0	---	0.00	30.193 
18:45	35.5	35.5	35.5	76	28.7	0	0	---	0.00	30.194 
18:50	35.3	35.3	35.3	76	28.5	0	0	---	0.00	30.194 
18:55	35.2	35.2	35.2	77	28.7	0	0	---	0.00	30.194 
19:00	35.0	35.0	35.0	77	28.5	0	0	---	0.00	30.193 
19:05	35.0	35.0	35.0	78	28.8	0	0	---	0.00	30.193 
19:10	34.9	34.9	34.9	79	29.1	0	0	---	0.00	30.193 
19:15	35.0	35.0	35.0	79	29.2	0	0	---	0.00	30.196 
19:20	35.0	35.0	35.0	80	29.5	0	0	---	0.00	30.196 
19:25	35.0	35.0	35.0	80	29.5	0	0	---	0.00	30.196 
19:30	34.9	34.9	34.9	80	29.4	0	0	---	0.00	30.197 
19:35	34.7	34.7	34.7	80	29.2	0	0	---	0.00	30.197 
19:40	34.4	34.4	34.4	80	28.9	0	0	---	0.00	30.197 
19:45	34.4	34.4	34.4	81	29.2	0	0	---	0.00	30.197 
19:50	34.3	34.3	34.3	81	29.1	0	0	---	0.00	30.197 
19:55	34.1	34.1	34.1	81	28.9	0	0	---	0.00	30.197 
20:00	34.1	34.1	34.1	82	29.2	0	0	---	0.00	30.212 
20:05	34.1	34.1	34.1	82	29.2	0	0	---	0.00	30.212 
20:10	33.8	33.8	33.8	82	28.9	0	0	---	0.00	30.212 
20:15	33.7	33.7	33.7	82	28.8	0	0	---	0.00	30.204 
20:20	33.5	33.5	33.5	83	28.9	0	0	---	0.00	30.204 
20:25	33.4	33.4	33.4	83	28.8	0	0	---	0.00	30.204 
20:30	33.4	33.4	33.4	83	28.8	0	0	---	0.00	30.199 
20:35	33.2	33.2	33.2	83	28.6	0	0	---	0.00	30.199 
20:40	33.1	33.1	33.1	83	28.5	0	0	---	0.00	30.199 
20:45	33.1	33.1	33.1	84	28.8	0	0	---	0.00	30.193 
20:50	33.1	33.1	33.1	84	28.8	0	0	---	0.00	30.193 
20:55	33.2	33.2	33.2	84	28.9	0	0	---	0.00	30.193 
21:00	33.2	33.2	33.2	85	29.2	0	0	---	0.00	30.186 
21:05	33.2	33.2	33.2	85	29.2	0	0	---	0.00	30.186 
21:10	33.2	33.2	33.2	84	28.9	0	0	---	0.00	30.186 
21:15	33.1	33.1	33.1	84	28.8	0	0	---	0.00	30.175 
21:20	33.1	33.1	33.1	84	28.8	0	0	---	0.00	30.175 
21:25	33.1	33.1	33.1	85	29.1	0	0	---	0.00	30.175 
21:30	33.1	33.1	33.1	85	29.1	0	0	---	0.00	30.175 
21:35	32.9	32.9	32.9	85	28.9	0	0	---	0.00	30.175 
21:40	32.9	32.9	32.9	85	28.9	0	0	---	0.00	30.175 
21:45	32.8	32.8	32.8	85	28.8	0	0	---	0.00	30.174 
21:50	32.8	32.8	32.8	86	29.1	0	0	---	0.00	30.174 
21:55	32.8	32.8	32.8	86	29.1	0	0	---	0.00	30.174 
22:00	32.9	32.9	32.9	86	29.2	0	0	---	0.00	30.172 
22:05	32.9	32.9	32.9	86	29.2	0	0	---	0.00	30.172 
22:10	32.9	32.9	32.9	86	29.2	0	0	---	0.00	30.172 
22:15	32.8	32.8	32.8	86	29.1	0	0	---	0.00	30.169 
22:20	32.7	32.7	32.7	86	29.0	0	0	---	0.00	30.169 
22:25	32.7	32.7	32.7	86	29.0	0	0	---	0.00	30.169 
22:30	32.8	32.8	32.8	87	29.4	0	0	---	0.00	30.158 
22:35	32.7	32.7	32.7	87	29.3	0	0	---	0.00	30.158 
22:40	32.7	32.7	32.7	87	29.3	0	0	---	0.00	30.158 
22:45	32.8	32.8	32.8	87	29.4	0	0	---	0.00	30.156 
22:50	32.9	32.9	32.9	87	29.5	0	0	---	0.00	30.156 
22:55	32.9	32.9	32.9	87	29.5	0	0	---	0.00	30.156 
23:00	32.8	32.8	32.8	87	29.4	0	0	---	0.00	30.155 
23:05	32.7	32.7	32.7	87	29.3	0	0	---	0.00	30.155 
23:10	32.7	32.7	32.7	87	29.3	0	0	---	0.00	30.155 
23:15	32.5	32.5	32.5	87	29.1	0	0	---	0.00	30.154 
23:20	32.7	32.7	32.7	88	29.5	0	0	---	0.00	30.154 
23:25	32.7	32.7	32.7	87	29.3	0	0	---	0.00	30.154 
23:30	32.7	32.7	32.7	88	29.5	0	0	---	0.00	30.152 
23:35	32.7	32.7	32.7	88	29.5	0	0	---	0.00	30.152 
23:40	32.8	32.8	32.8	88	29.6	0	0	---	0.00	30.152 
23:45	33.1	33.1	33.1	88	29.9	0	0	---	0.00	30.150 
23:50	33.4	33.4	33.4	88	30.2	0	0	---	0.00	30.150 
23:55	33.4	33.4	33.4	88	30.2	0	0	---	0.00	30.150 

CoCoRaHS
IN-AL-39
A2 Web Hosting
Creative Commons License
GoDaddy
search engine by freefind advanced

loaded 2018-11-16 11:52:45 • last modified 2010-11-18 10:43:29
Privacy PolicyDisclaimer
• wx.awcolley.com is powered by PmWiki v.2002016 •
• all content (unless otherwise noted) © 2018 A W Colley